CheckWX is a tool to help pilots better visualize weather data.  It is not intended as a substitute for an official pre-flight weather briefing.

22:55:07 UTC

KDPL METAR
Duplin Co Airport
Kenansville, North Carolina, USA
Current

20 mins ago

KDPL 092235Z AUTO 05004KT 10SM CLR 29/23 A2982 RMK AO2
Observed
Jul-9 @ 22:35 UTC
Wind
  • 050° at 4 KTS
Visibility
10 SM
Flight Rules
VFR
Cloud Levels
  • Clear skies
Temperature
29°C / 84°F
Dewpoint
23°C / 73°F
Humidity
70%
Altimeter
29.82" Hg
Pressure
1009.82 hPa
Previous

40 mins ago

KDPL 092215Z AUTO 07003KT 10SM SCT034 SCT046 SCT095 29/24 A2982 RMK AO2
Observed
Jul-9 @ 22:15 UTC
Wind
  • 070° at 3 KTS
Visibility
10 SM
Flight Rules
VFR
Cloud Levels
  • Scattered at 3,400' AGL
  • Scattered at 4,600' AGL
  • Scattered at 9,500' AGL
Temperature
29°C / 84°F
Dewpoint
24°C / 75°F
Humidity
74%
Altimeter
29.82" Hg
Pressure
1009.82 hPa
Previous

60 mins ago

KDPL 092155Z AUTO 10004KT 10SM SCT035 BKN047 BKN060 28/24 A2982 RMK AO2
Observed
Jul-9 @ 21:55 UTC
Wind
  • 100° at 4 KTS
Visibility
10 SM
Flight Rules
VFR
Cloud Levels
  • Scattered at 3,500' AGL
  • Broken at 4,700' AGL
  • Broken at 6,000' AGL
Temperature
28°C / 82°F
Dewpoint
24°C / 75°F
Humidity
79%
Altimeter
29.82" Hg
Pressure
1009.82 hPa